createdAt,value
2023-05-06T00:02:21.607Z,1.00
2023-05-06T00:04:49.764Z,0.70
2023-05-06T00:07:17.964Z,0.70
2023-05-06T00:09:46.191Z,0.90
2023-05-06T00:12:14.347Z,0.80
2023-05-06T00:14:42.524Z,0.80
2023-05-06T00:17:10.608Z,0.90
2023-05-06T00:19:38.680Z,0.90
2023-05-06T00:22:06.541Z,0.80
2023-05-06T00:24:34.670Z,0.90
2023-05-06T00:27:02.625Z,1.10
2023-05-06T00:29:30.342Z,1.00
2023-05-06T00:31:58.648Z,0.90
2023-05-06T00:34:26.693Z,0.80
2023-05-06T00:36:54.453Z,0.90
2023-05-06T00:39:22.367Z,0.80
2023-05-06T00:41:50.285Z,0.70
2023-05-06T00:44:18.484Z,0.70
2023-05-06T00:46:46.745Z,1.10
2023-05-06T00:49:14.562Z,0.90
2023-05-06T00:51:42.688Z,0.80
2023-05-06T00:54:10.542Z,1.00
2023-05-06T00:56:38.328Z,1.10
2023-05-06T00:59:06.902Z,0.80
2023-05-06T01:04:02.143Z,0.90
2023-05-06T01:06:37.891Z,0.90
2023-05-06T01:09:19.670Z,0.90
2023-05-06T01:11:59.106Z,0.90
2023-05-06T01:14:59.860Z,1.20
2023-05-06T01:17:30.390Z,1.00
2023-05-06T01:20:01.467Z,0.90
2023-05-06T01:22:31.133Z,1.30
2023-05-06T01:24:59.532Z,1.20
2023-05-06T01:27:28.820Z,1.00
2023-05-06T01:29:57.998Z,0.90
2023-05-06T01:32:54.165Z,1.30
2023-05-06T01:35:32.874Z,1.00
2023-05-06T01:38:21.619Z,1.00
2023-05-06T01:40:55.124Z,1.00
2023-05-06T01:43:26.599Z,0.90
2023-05-06T01:45:56.164Z,1.20
2023-05-06T01:48:30.598Z,0.90
2023-05-06T01:50:58.783Z,0.90
2023-05-06T01:53:26.960Z,0.80
2023-05-06T01:55:55.023Z,1.40
2023-05-06T01:58:23.111Z,0.80
2023-05-06T02:00:51.073Z,1.00
2023-05-06T02:03:19.342Z,1.10
2023-05-06T02:05:48.160Z,1.00
2023-05-06T02:08:16.233Z,0.90
2023-05-06T02:10:44.169Z,0.80
2023-05-06T02:13:12.457Z,1.00
2023-05-06T02:18:08.915Z,1.00
2023-05-06T02:20:37.074Z,0.90
2023-05-06T02:23:04.943Z,1.10
2023-05-06T02:25:33.629Z,1.00
2023-05-06T02:30:32.105Z,1.20
2023-05-06T02:32:59.476Z,1.00
2023-05-06T02:35:27.253Z,1.20
2023-05-06T02:37:55.218Z,1.00
2023-05-06T02:40:22.782Z,1.10
2023-05-06T02:42:50.874Z,0.90
2023-05-06T02:45:18.459Z,0.90
2023-05-06T02:47:46.556Z,1.30
2023-05-06T02:50:14.235Z,1.00
2023-05-06T02:52:42.732Z,1.10
2023-05-06T02:57:38.890Z,1.10
2023-05-06T03:00:10.726Z,1.00
2023-05-06T03:02:39.188Z,1.10
2023-05-06T03:05:08.008Z,1.00
2023-05-06T03:07:37.205Z,1.00
2023-05-06T03:10:05.205Z,1.00
2023-05-06T03:12:32.994Z,1.00
2023-05-06T03:15:01.011Z,1.60
2023-05-06T03:17:28.634Z,1.30
2023-05-06T03:19:56.748Z,1.10
2023-05-06T03:22:24.536Z,1.00
2023-05-06T03:24:52.424Z,0.90
2023-05-06T03:27:20.487Z,1.10
2023-05-06T03:29:48.161Z,1.10
2023-05-06T03:32:16.186Z,1.20
2023-05-06T03:34:44.498Z,1.10
2023-05-06T03:37:12.274Z,1.10
2023-05-06T03:39:40.452Z,1.00
2023-05-06T03:42:09.440Z,1.10
2023-05-06T03:44:37.986Z,1.00
2023-05-06T03:47:06.064Z,1.00
2023-05-06T03:49:34.027Z,1.00
2023-05-06T03:52:02.222Z,1.00
2023-05-06T03:54:30.468Z,1.00
2023-05-06T03:59:27.236Z,0.90
2023-05-06T04:01:56.177Z,1.00
2023-05-06T04:04:25.139Z,1.70
2023-05-06T04:06:52.553Z,1.20
2023-05-06T04:09:20.287Z,1.20
2023-05-06T04:11:48.104Z,1.10
2023-05-06T04:14:15.555Z,1.10
2023-05-06T04:16:43.497Z,1.00
2023-05-06T04:19:11.933Z,1.20
2023-05-06T04:21:39.996Z,1.00
2023-05-06T04:24:08.317Z,1.10
2023-05-06T04:26:36.336Z,1.30
2023-05-06T04:29:03.809Z,1.30
2023-05-06T04:31:32.699Z,1.00
2023-05-06T04:34:01.376Z,1.10
2023-05-06T04:36:29.350Z,1.20
2023-05-06T04:38:57.518Z,1.30
2023-05-06T04:41:26.201Z,0.90
2023-05-06T04:43:53.965Z,1.10
2023-05-06T04:46:23.392Z,1.10
2023-05-06T04:48:51.250Z,1.20
2023-05-06T04:51:19.423Z,1.00
2023-05-06T04:53:47.491Z,1.20
2023-05-06T04:56:15.258Z,1.00
2023-05-06T04:58:43.748Z,1.20
2023-05-06T05:01:11.947Z,1.10
2023-05-06T05:03:40.040Z,1.20
2023-05-06T05:06:07.780Z,1.00
2023-05-06T05:08:35.928Z,1.90
2023-05-06T05:11:03.789Z,1.10
2023-05-06T05:13:31.861Z,1.10
2023-05-06T05:15:59.628Z,1.20
2023-05-06T05:18:29.208Z,1.10
2023-05-06T05:20:57.037Z,1.20
2023-05-06T05:23:24.943Z,1.20
2023-05-06T05:25:53.068Z,1.10
2023-05-06T05:28:21.319Z,1.10
2023-05-06T05:30:48.950Z,1.00
2023-05-06T05:33:16.829Z,1.30
2023-05-06T05:35:44.924Z,1.10
2023-05-06T05:38:14.065Z,1.20
2023-05-06T05:40:42.200Z,1.20
2023-05-06T05:43:09.807Z,1.00
2023-05-06T05:45:37.528Z,1.00
2023-05-06T05:48:06.287Z,1.10
2023-05-06T05:50:34.505Z,1.10
2023-05-06T05:53:02.252Z,1.10
2023-05-06T05:55:30.518Z,1.00
2023-05-06T05:57:58.852Z,1.20
2023-05-06T06:00:26.286Z,1.20
2023-05-06T06:02:54.060Z,1.20
2023-05-06T06:05:22.398Z,1.10
2023-05-06T06:07:50.592Z,1.10
2023-05-06T06:10:18.866Z,1.20
2023-05-06T06:15:15.406Z,1.10
2023-05-06T06:17:44.008Z,1.20
2023-05-06T06:20:13.308Z,1.20
2023-05-06T06:22:41.577Z,1.30
2023-05-06T06:25:10.233Z,1.40
2023-05-06T06:27:38.328Z,1.20
2023-05-06T06:30:07.431Z,1.80
2023-05-06T06:32:35.531Z,1.30
2023-05-06T06:35:03.683Z,1.60
2023-05-06T06:37:31.338Z,1.20
2023-05-06T06:39:59.308Z,1.30
2023-05-06T06:42:27.371Z,1.20
2023-05-06T06:44:55.360Z,1.40
2023-05-06T06:47:22.905Z,1.30
2023-05-06T06:49:51.073Z,1.30
2023-05-06T06:52:18.945Z,1.40
2023-05-06T06:54:46.341Z,1.30
2023-05-06T06:57:14.379Z,1.20
2023-05-06T06:59:42.305Z,1.30
2023-05-06T07:02:10.000Z,1.20
2023-05-06T07:04:38.087Z,1.30
2023-05-06T07:09:35.701Z,1.20
2023-05-06T07:12:04.965Z,1.30
2023-05-06T07:14:32.935Z,1.30
2023-05-06T07:19:30.419Z,1.60
2023-05-06T07:21:58.214Z,1.90
2023-05-06T07:24:26.670Z,1.70
2023-05-06T07:29:22.595Z,8.90
2023-05-06T07:31:50.665Z,4.40
2023-05-06T07:34:19.561Z,2.30
2023-05-06T07:36:47.534Z,1.60
2023-05-06T07:39:15.730Z,7.50
2023-05-06T07:41:43.467Z,1.50
2023-05-06T07:44:11.647Z,1.60
2023-05-06T07:46:39.862Z,1.50
2023-05-06T07:49:07.782Z,1.50
2023-05-06T07:51:35.859Z,1.30
2023-05-06T07:54:03.629Z,1.50
2023-05-06T07:56:32.006Z,3.20
2023-05-06T07:58:59.975Z,1.30
2023-05-06T08:01:29.474Z,1.30
2023-05-06T08:03:57.661Z,1.50
2023-05-06T08:06:26.565Z,4.90
2023-05-06T08:08:54.746Z,26.90
2023-05-06T08:11:22.505Z,17.30
2023-05-06T08:13:50.966Z,40.80
2023-05-06T08:16:18.734Z,39.90
2023-05-06T08:18:46.598Z,26.40
2023-05-06T08:21:14.569Z,35.40
2023-05-06T08:26:09.888Z,17.10
2023-05-06T08:28:37.675Z,14.00
2023-05-06T08:31:05.730Z,3.20
2023-05-06T08:33:33.524Z,2.60
2023-05-06T08:36:01.491Z,3.10
2023-05-06T08:38:29.644Z,3.60
2023-05-06T08:41:00.630Z,2.10
2023-05-06T08:43:32.757Z,1.50
2023-05-06T08:46:00.800Z,1.20
2023-05-06T08:48:29.669Z,1.60
2023-05-06T08:51:00.937Z,1.50
2023-05-06T08:53:30.918Z,2.60
2023-05-06T08:56:03.930Z,1.30
2023-05-06T08:58:34.946Z,1.40
2023-05-06T09:01:03.720Z,1.60
2023-05-06T09:03:31.802Z,1.60
2023-05-06T09:05:59.442Z,1.70
2023-05-06T09:08:27.730Z,1.40
2023-05-06T09:10:56.089Z,1.60
2023-05-06T09:15:55.028Z,1.60
2023-05-06T09:18:23.271Z,2.30
2023-05-06T09:20:50.903Z,1.40
2023-05-06T09:23:19.247Z,1.50
2023-05-06T09:25:50.876Z,1.80
2023-05-06T09:28:18.761Z,2.80
2023-05-06T09:30:52.281Z,1.90
2023-05-06T09:33:21.687Z,1.40
2023-05-06T09:35:49.921Z,1.60
2023-05-06T09:38:17.883Z,1.50
2023-05-06T09:40:46.489Z,1.40
2023-05-06T09:43:15.341Z,1.50
2023-05-06T09:45:44.373Z,1.60
2023-05-06T09:48:12.476Z,1.60
2023-05-06T09:50:40.992Z,1.60
2023-05-06T09:53:11.877Z,1.50
2023-05-06T09:55:40.642Z,1.50
2023-05-06T09:58:09.337Z,1.30
2023-05-06T10:00:37.190Z,1.40
2023-05-06T10:03:06.406Z,1.70
2023-05-06T10:05:36.471Z,1.60
2023-05-06T10:08:05.420Z,1.40
2023-05-06T10:10:35.169Z,1.50
2023-05-06T10:13:04.347Z,1.50
2023-05-06T10:15:33.142Z,1.50
2023-05-06T10:18:01.983Z,1.50
2023-05-06T10:20:31.484Z,1.50
2023-05-06T10:23:22.211Z,1.70
2023-05-06T10:26:01.434Z,1.50
2023-05-06T10:28:31.856Z,1.80
2023-05-06T10:31:00.245Z,1.50
2023-05-06T10:33:29.727Z,1.80
2023-05-06T10:36:02.128Z,2.20
2023-05-06T10:38:36.447Z,2.10
2023-05-06T10:41:07.201Z,2.00
2023-05-06T10:43:41.219Z,2.10
2023-05-06T10:46:13.109Z,1.50
2023-05-06T10:49:08.577Z,1.80
2023-05-06T10:51:37.621Z,1.60
2023-05-06T10:54:06.874Z,1.50
2023-05-06T10:56:39.587Z,1.40
2023-05-06T10:59:12.334Z,1.40
2023-05-06T11:01:42.633Z,1.40
2023-05-06T11:04:15.921Z,1.30
2023-05-06T11:06:47.894Z,1.40
2023-05-06T11:09:27.248Z,1.20
2023-05-06T11:12:05.142Z,1.30
2023-05-06T11:14:35.480Z,1.30
2023-05-06T11:17:07.903Z,1.40
2023-05-06T11:19:37.717Z,1.00
2023-05-06T11:22:07.138Z,1.50
2023-05-06T11:24:43.341Z,1.90
2023-05-06T11:27:10.997Z,1.40
2023-05-06T11:29:39.054Z,1.40
2023-05-06T11:34:46.255Z,1.50
2023-05-06T11:37:26.552Z,2.00
2023-05-06T11:39:55.400Z,1.70
2023-05-06T11:42:28.615Z,1.50
2023-05-06T11:45:01.980Z,1.40
2023-05-06T11:47:29.879Z,1.40
2023-05-06T11:49:58.859Z,1.40
2023-05-06T11:52:26.380Z,1.50
2023-05-06T11:54:55.015Z,1.40
2023-05-06T11:57:23.274Z,1.70
2023-05-06T11:59:55.234Z,1.30
2023-05-06T12:02:23.188Z,1.80
2023-05-06T12:04:52.355Z,1.80
2023-05-06T12:07:20.327Z,1.50
2023-05-06T12:09:50.072Z,1.30
2023-05-06T12:12:22.118Z,1.60
2023-05-06T12:14:52.173Z,1.50
2023-05-06T12:17:20.525Z,1.70
2023-05-06T12:19:48.946Z,1.20
2023-05-06T12:22:27.153Z,1.20
2023-05-06T12:24:55.322Z,1.30
2023-05-06T12:27:36.230Z,1.30
2023-05-06T12:30:09.330Z,1.30
2023-05-06T12:32:57.683Z,1.30
2023-05-06T12:35:28.029Z,1.20
2023-05-06T12:37:57.014Z,1.50
2023-05-06T12:40:24.823Z,1.70
2023-05-06T12:42:55.964Z,1.20
2023-05-06T12:45:24.391Z,1.60
2023-05-06T12:48:02.603Z,1.40
2023-05-06T12:50:39.837Z,1.90
2023-05-06T12:53:09.973Z,1.10
2023-05-06T12:55:39.387Z,1.20
2023-05-06T12:58:18.421Z,1.10
2023-05-06T13:00:46.386Z,1.20
2023-05-06T13:05:42.093Z,1.20
2023-05-06T13:08:09.971Z,1.10
2023-05-06T13:10:37.994Z,1.30
2023-05-06T13:13:06.795Z,2.30
2023-05-06T13:15:35.258Z,1.00
2023-05-06T13:18:03.449Z,1.10
2023-05-06T13:20:32.597Z,1.40
2023-05-06T13:23:00.991Z,1.10
2023-05-06T13:25:29.251Z,1.50
2023-05-06T13:27:57.416Z,1.50
2023-05-06T13:30:25.700Z,1.20
2023-05-06T13:35:21.017Z,0.90
2023-05-06T13:37:48.692Z,0.90
2023-05-06T13:40:16.683Z,1.00
2023-05-06T13:42:44.715Z,1.10
2023-05-06T13:45:12.776Z,0.90
2023-05-06T13:47:42.145Z,1.10
2023-05-06T13:50:11.001Z,1.10
2023-05-06T13:52:39.156Z,1.20
2023-05-06T13:55:08.091Z,1.20
2023-05-06T13:57:36.429Z,1.10
2023-05-06T14:02:36.444Z,0.80
2023-05-06T14:05:05.614Z,1.00
2023-05-06T14:07:33.752Z,1.10
2023-05-06T14:10:01.319Z,0.90
2023-05-06T14:12:29.058Z,1.70
2023-05-06T14:14:57.339Z,1.30
2023-05-06T14:17:25.004Z,1.10
2023-05-06T14:19:52.857Z,1.00
2023-05-06T14:22:21.358Z,1.20
2023-05-06T14:24:49.038Z,1.10
2023-05-06T14:27:16.853Z,1.00
2023-05-06T14:29:46.001Z,1.00
2023-05-06T14:32:13.921Z,1.20
2023-05-06T14:34:42.150Z,0.80
2023-05-06T14:37:10.191Z,1.00
2023-05-06T14:39:40.924Z,1.00
2023-05-06T14:42:10.183Z,1.00
2023-05-06T14:44:38.077Z,1.00
2023-05-06T14:47:05.659Z,1.00
2023-05-06T14:49:33.633Z,0.90
2023-05-06T14:54:29.494Z,0.90
2023-05-06T14:57:01.195Z,1.20
2023-05-06T14:59:29.087Z,0.80
2023-05-06T15:04:25.633Z,0.80
2023-05-06T15:06:57.236Z,2.80
2023-05-06T15:09:26.191Z,1.10
2023-05-06T15:11:54.570Z,1.10
2023-05-06T15:14:22.792Z,1.90
2023-05-06T15:16:50.933Z,1.20
2023-05-06T15:19:19.189Z,0.90
2023-05-06T15:24:15.449Z,0.80
2023-05-06T15:26:43.642Z,0.80
2023-05-06T15:29:12.614Z,0.80
2023-05-06T15:31:41.830Z,0.90
2023-05-06T15:34:12.653Z,0.90
2023-05-06T15:36:42.797Z,0.90
2023-05-06T15:39:13.054Z,1.00
2023-05-06T15:41:42.518Z,1.00
2023-05-06T15:44:15.965Z,1.80
2023-05-06T15:46:46.473Z,1.10
2023-05-06T15:49:39.748Z,1.00
2023-05-06T15:52:05.948Z,1.00
2023-05-06T15:54:41.410Z,1.00
2023-05-06T15:57:11.790Z,0.90
2023-05-06T15:59:40.085Z,0.90
2023-05-06T16:04:42.352Z,0.80
2023-05-06T16:07:11.377Z,0.80
2023-05-06T16:09:40.128Z,0.90
2023-05-06T16:12:10.350Z,0.80
2023-05-06T16:14:40.261Z,0.90
2023-05-06T16:17:09.372Z,0.90
2023-05-06T16:19:38.785Z,1.20
2023-05-06T16:22:08.019Z,0.90
2023-05-06T16:24:37.298Z,1.00
2023-05-06T16:27:05.802Z,1.20
2023-05-06T16:32:04.478Z,0.80
2023-05-06T16:34:32.741Z,1.00
2023-05-06T16:37:01.415Z,0.90
2023-05-06T16:39:30.720Z,1.20
2023-05-06T16:41:59.305Z,0.80
2023-05-06T16:44:29.450Z,0.80
2023-05-06T16:46:59.084Z,1.00
2023-05-06T16:49:28.136Z,0.80
2023-05-06T16:51:58.059Z,0.80
2023-05-06T16:54:28.061Z,0.80
2023-05-06T16:56:56.073Z,0.70
2023-05-06T16:59:24.835Z,1.60
2023-05-06T17:01:53.354Z,0.60
2023-05-06T17:04:25.008Z,0.60
2023-05-06T17:06:58.560Z,0.70
2023-05-06T17:09:29.685Z,0.70
2023-05-06T17:11:59.462Z,0.70
2023-05-06T17:14:28.914Z,0.80
2023-05-06T17:17:00.110Z,1.40
2023-05-06T17:19:30.621Z,1.70
2023-05-06T17:22:00.353Z,1.90
2023-05-06T17:24:29.719Z,1.30
2023-05-06T17:26:58.799Z,1.10
2023-05-06T17:29:28.924Z,0.90
2023-05-06T17:31:57.159Z,0.90
2023-05-06T17:34:26.971Z,1.30
2023-05-06T17:36:56.105Z,1.40
2023-05-06T17:39:25.360Z,1.60
2023-05-06T17:41:54.511Z,2.00
2023-05-06T17:44:23.972Z,1.90
2023-05-06T17:46:53.861Z,1.60
2023-05-06T17:49:21.690Z,2.00
2023-05-06T17:51:51.409Z,1.40
2023-05-06T17:54:19.680Z,1.60
2023-05-06T17:56:52.738Z,1.30
2023-05-06T17:59:23.121Z,1.90
2023-05-06T18:01:52.289Z,2.20
2023-05-06T18:04:20.888Z,1.50
2023-05-06T18:06:48.279Z,1.10
2023-05-06T18:09:16.117Z,1.50
2023-05-06T18:14:12.898Z,3.20
2023-05-06T18:16:41.666Z,3.00
2023-05-06T18:19:10.145Z,3.00
2023-05-06T18:24:15.924Z,3.60
2023-05-06T18:26:46.308Z,3.90
2023-05-06T18:29:14.045Z,3.70
2023-05-06T18:31:42.071Z,3.10
2023-05-06T18:34:10.460Z,3.40
2023-05-06T18:36:38.503Z,2.90
2023-05-06T18:39:09.175Z,3.60
2023-05-06T18:41:37.125Z,3.40
2023-05-06T18:44:06.017Z,3.20
2023-05-06T18:46:34.424Z,2.90
2023-05-06T18:49:02.465Z,3.00
2023-05-06T18:51:31.909Z,2.90
2023-05-06T18:54:00.360Z,5.40
2023-05-06T18:58:55.891Z,3.70
2023-05-06T19:01:25.241Z,4.70
2023-05-06T19:03:53.292Z,4.40
2023-05-06T19:06:21.427Z,3.60
2023-05-06T19:08:49.507Z,4.90
2023-05-06T19:11:21.219Z,3.60
2023-05-06T19:13:50.176Z,2.40
2023-05-06T19:16:17.898Z,2.00
2023-05-06T19:18:47.848Z,1.80
2023-05-06T19:21:16.269Z,1.70
2023-05-06T19:23:45.412Z,1.80
2023-05-06T19:26:14.225Z,1.80
2023-05-06T19:28:42.384Z,1.60
2023-05-06T19:31:11.648Z,1.30
2023-05-06T19:33:40.597Z,1.30
2023-05-06T19:36:09.110Z,1.40
2023-05-06T19:41:05.720Z,1.30
2023-05-06T19:43:33.480Z,9.90
2023-05-06T19:46:01.615Z,5.10
2023-05-06T19:48:30.369Z,19.60
2023-05-06T19:50:57.750Z,14.30
2023-05-06T19:53:25.342Z,10.10
2023-05-06T19:56:01.703Z,11.90
2023-05-06T19:58:30.140Z,13.50
2023-05-06T20:00:58.545Z,16.00
2023-05-06T20:05:54.624Z,10.70
2023-05-06T20:08:24.282Z,5.10
2023-05-06T20:10:52.310Z,2.80
2023-05-06T20:13:20.416Z,3.60
2023-05-06T20:15:49.015Z,1.40
2023-05-06T20:20:44.317Z,1.10
2023-05-06T20:23:12.262Z,1.00
2023-05-06T20:25:40.841Z,0.90
2023-05-06T20:28:08.751Z,1.20
2023-05-06T20:30:38.244Z,1.10
2023-05-06T20:33:06.338Z,2.10
2023-05-06T20:35:38.630Z,2.10
2023-05-06T20:38:08.972Z,1.50
2023-05-06T20:40:36.620Z,2.50
2023-05-06T20:43:04.680Z,1.90
2023-05-06T20:45:32.223Z,6.60
2023-05-06T20:48:02.092Z,9.80
2023-05-06T20:50:30.730Z,6.20
2023-05-06T20:52:58.962Z,5.80
2023-05-06T20:55:27.207Z,2.80
2023-05-06T20:57:54.889Z,1.60
2023-05-06T21:00:22.970Z,1.10
2023-05-06T21:02:51.253Z,1.10
2023-05-06T21:07:47.304Z,1.10
2023-05-06T21:10:15.367Z,0.90
2023-05-06T21:12:50.775Z,0.90
2023-05-06T21:15:19.284Z,0.80
2023-05-06T21:17:47.378Z,1.00
2023-05-06T21:20:16.589Z,1.00
2023-05-06T21:22:44.152Z,1.20
2023-05-06T21:25:13.241Z,1.10
2023-05-06T21:27:41.702Z,1.20
2023-05-06T21:30:10.345Z,1.30
2023-05-06T21:32:38.538Z,1.30
2023-05-06T21:35:06.965Z,1.30
2023-05-06T21:37:35.678Z,1.30
2023-05-06T21:40:04.345Z,1.20
2023-05-06T21:42:31.704Z,1.20
2023-05-06T21:44:59.540Z,1.40
2023-05-06T21:47:27.821Z,1.20
2023-05-06T21:49:55.996Z,0.90
2023-05-06T21:52:24.809Z,1.20
2023-05-06T21:54:53.360Z,1.10
2023-05-06T21:57:21.875Z,1.20
2023-05-06T21:59:49.781Z,1.40
2023-05-06T22:02:17.225Z,1.10
2023-05-06T22:04:45.027Z,1.20
2023-05-06T22:07:12.411Z,1.00
2023-05-06T22:09:40.367Z,1.10
2023-05-06T22:12:11.713Z,1.20
2023-05-06T22:14:41.584Z,0.90
2023-05-06T22:17:10.595Z,1.00
2023-05-06T22:19:40.716Z,1.40
2023-05-06T22:22:08.920Z,1.40
2023-05-06T22:24:36.840Z,1.10
2023-05-06T22:27:06.080Z,1.20
2023-05-06T22:29:35.089Z,1.00
2023-05-06T22:32:02.861Z,0.90
2023-05-06T22:34:30.830Z,0.80
2023-05-06T22:37:00.475Z,0.70
2023-05-06T22:39:29.750Z,0.90
2023-05-06T22:41:57.792Z,0.90
2023-05-06T22:44:25.588Z,0.80
2023-05-06T22:46:54.803Z,0.90
2023-05-06T22:49:23.493Z,1.00
2023-05-06T22:51:52.117Z,0.90
2023-05-06T22:56:47.914Z,1.10
2023-05-06T22:59:16.066Z,1.00
2023-05-06T23:01:44.559Z,1.00
2023-05-06T23:04:12.828Z,1.00
2023-05-06T23:06:41.002Z,1.00
2023-05-06T23:09:09.459Z,1.00
2023-05-06T23:11:37.825Z,1.10
2023-05-06T23:14:06.433Z,1.10
2023-05-06T23:16:34.877Z,1.20
2023-05-06T23:19:02.879Z,1.40
2023-05-06T23:21:31.345Z,1.20
2023-05-06T23:26:26.771Z,1.10
2023-05-06T23:28:54.535Z,1.10
2023-05-06T23:31:22.760Z,1.10
2023-05-06T23:33:50.613Z,1.00
2023-05-06T23:36:18.650Z,1.10
2023-05-06T23:38:46.735Z,1.10
2023-05-06T23:41:14.387Z,1.30
2023-05-06T23:43:42.457Z,1.30
2023-05-06T23:46:11.109Z,1.20
2023-05-06T23:48:39.609Z,1.00
2023-05-06T23:51:07.411Z,1.00
2023-05-06T23:53:36.175Z,1.10
2023-05-06T23:56:04.510Z,1.20
2023-05-06T23:58:32.334Z,1.00
